AAL1675 KLAX-KPHX
Flight info
| Callsign | AAL1675 |
|---|---|
| Flight time | 0h 59m |
| Altitude | 35000 |
| Route | DOTSS2 CNERY BLH HYDRR1 |
| Aircraft | A321/M-SDE3FGHIRWY/LB1 |
Departure
| Time | 2026-05-04 19:40 |
|---|---|
| Airport | Los Angeles International Airport (KLAX) |
Arrival
| Time | 2026-05-04 20:39 |
|---|---|
| Airport | Phoenix Sky Harbor International Airport (KPHX) |
| Time | Latitude | Longitude | Altitude | Speed | Heading |
|---|---|---|---|---|---|
| 2026-05-04 17:46 | 33.94000 | -118.40602 | 126 ft | 0 kts | 294° |
| 2026-05-04 17:57 | 33.94000 | -118.40601 | 126 ft | 0 kts | 294° |
| 2026-05-04 18:15 | 33.94002 | -118.40606 | 126 ft | 0 kts | 294° |
| 2026-05-04 18:39 | 33.94002 | -118.40605 | 126 ft | 0 kts | 294° |
| 2026-05-04 18:43 | 33.94001 | -118.40605 | 126 ft | 0 kts | 294° |
| 2026-05-04 19:13 | 33.94001 | -118.40604 | 126 ft | 0 kts | 294° |
| 2026-05-04 19:27 | 33.94000 | -118.40601 | 126 ft | 3 kts | 294° |
| 2026-05-04 19:27 | 33.93992 | -118.40572 | 126 ft | 4 kts | 265° |
| 2026-05-04 19:28 | 33.93999 | -118.40550 | 124 ft | 4 kts | 196° |
| 2026-05-04 19:28 | 33.94007 | -118.40548 | 126 ft | 1 kts | 173° |
| 2026-05-04 19:30 | 33.93993 | -118.40547 | 126 ft | 6 kts | 173° |
| 2026-05-04 19:30 | 33.93924 | -118.40537 | 122 ft | 12 kts | 173° |
| 2026-05-04 19:31 | 33.93843 | -118.40521 | 126 ft | 10 kts | 155° |
| 2026-05-04 19:31 | 33.93834 | -118.40437 | 126 ft | 12 kts | 83° |
| 2026-05-04 19:31 | 33.93844 | -118.40328 | 126 ft | 14 kts | 83° |
| 2026-05-04 19:31 | 33.93858 | -118.40202 | 126 ft | 16 kts | 82° |
| 2026-05-04 19:32 | 33.93873 | -118.40057 | 126 ft | 18 kts | 83° |
| 2026-05-04 19:32 | 33.93890 | -118.39895 | 126 ft | 21 kts | 83° |
| 2026-05-04 19:32 | 33.93909 | -118.39705 | 124 ft | 24 kts | 83° |
| 2026-05-04 19:32 | 33.93929 | -118.39504 | 132 ft | 25 kts | 83° |
| 2026-05-04 19:33 | 33.93950 | -118.39300 | 126 ft | 24 kts | 82° |
| 2026-05-04 19:33 | 33.93971 | -118.39105 | 124 ft | 23 kts | 83° |
| 2026-05-04 19:33 | 33.93990 | -118.38912 | 126 ft | 22 kts | 83° |
| 2026-05-04 19:33 | 33.94010 | -118.38722 | 122 ft | 23 kts | 83° |
| 2026-05-04 19:34 | 33.94029 | -118.38527 | 123 ft | 23 kts | 83° |
| 2026-05-04 19:34 | 33.94049 | -118.38336 | 121 ft | 21 kts | 83° |
| 2026-05-04 19:34 | 33.94065 | -118.38173 | 126 ft | 16 kts | 83° |
| 2026-05-04 19:34 | 33.94074 | -118.38093 | 126 ft | 12 kts | 83° |
| 2026-05-04 19:35 | 33.94077 | -118.38046 | 126 ft | 0 kts | 93° |
| 2026-05-04 19:35 | 33.94077 | -118.38042 | 126 ft | 2 kts | 95° |
| 2026-05-04 19:35 | 33.94035 | -118.38000 | 126 ft | 13 kts | 169° |
| 2026-05-04 19:35 | 33.93986 | -118.38031 | 126 ft | 0 kts | 256° |
| 2026-05-04 19:36 | 33.93985 | -118.38035 | 126 ft | 0 kts | 259° |
| 2026-05-04 19:39 | 33.93985 | -118.38036 | 126 ft | 0 kts | 259° |
| 2026-05-04 19:39 | 33.93976 | -118.38107 | 126 ft | 38 kts | 262° |
| 2026-05-04 19:39 | 33.93910 | -118.38730 | 126 ft | 111 kts | 263° |
| 2026-05-04 19:40 | 33.93787 | -118.39899 | 180 ft | 162 kts | 262° |
| 2026-05-04 19:40 | 33.93657 | -118.41192 | 1002 ft | 151 kts | 262° |
| 2026-05-04 19:40 | 33.93545 | -118.42431 | 1840 ft | 147 kts | 263° |
| 2026-05-04 19:40 | 33.93441 | -118.43639 | 2681 ft | 142 kts | 263° |
| 2026-05-04 19:41 | 33.93351 | -118.44800 | 3395 ft | 136 kts | 264° |
| 2026-05-04 19:41 | 33.93273 | -118.45916 | 3977 ft | 132 kts | 265° |
| 2026-05-04 19:41 | 33.92972 | -118.46967 | 4362 ft | 143 kts | 225° |
| 2026-05-04 19:41 | 33.92151 | -118.47796 | 4630 ft | 165 kts | 221° |
| 2026-05-04 19:42 | 33.91228 | -118.48758 | 4888 ft | 186 kts | 228° |
| 2026-05-04 19:42 | 33.90327 | -118.50001 | 5069 ft | 208 kts | 231° |
| 2026-05-04 19:42 | 33.89348 | -118.51418 | 5184 ft | 233 kts | 231° |
| 2026-05-04 19:42 | 33.88256 | -118.53004 | 5460 ft | 257 kts | 231° |
| 2026-05-04 19:43 | 33.86992 | -118.54534 | 6123 ft | 266 kts | 217° |
| 2026-05-04 19:43 | 33.85316 | -118.55526 | 6917 ft | 273 kts | 197° |
| 2026-05-04 19:43 | 33.83413 | -118.55749 | 7696 ft | 280 kts | 176° |
| 2026-05-04 19:43 | 33.81485 | -118.55285 | 8494 ft | 284 kts | 169° |
| 2026-05-04 19:44 | 33.79552 | -118.54746 | 9285 ft | 287 kts | 169° |
| 2026-05-04 19:44 | 33.77597 | -118.54206 | 10067 ft | 290 kts | 170° |
| 2026-05-04 19:44 | 33.75579 | -118.53658 | 10478 ft | 308 kts | 171° |
| 2026-05-04 19:44 | 33.73425 | -118.52999 | 10739 ft | 331 kts | 163° |
| 2026-05-04 19:45 | 33.71344 | -118.51698 | 11314 ft | 344 kts | 148° |
| 2026-05-04 19:45 | 33.69568 | -118.49716 | 12000 ft | 355 kts | 133° |
| 2026-05-04 19:45 | 33.68267 | -118.47154 | 12667 ft | 367 kts | 116° |
| 2026-05-04 19:45 | 33.67395 | -118.44290 | 13296 ft | 373 kts | 113° |
| 2026-05-04 19:46 | 33.66529 | -118.41336 | 13946 ft | 378 kts | 114° |
| 2026-05-04 19:46 | 33.65649 | -118.38343 | 14576 ft | 382 kts | 114° |
| 2026-05-04 19:46 | 33.64837 | -118.35281 | 15165 ft | 390 kts | 108° |
| 2026-05-04 19:46 | 33.64453 | -118.32022 | 15723 ft | 400 kts | 96° |
| 2026-05-04 19:47 | 33.64438 | -118.28681 | 16224 ft | 403 kts | 92° |
| 2026-05-04 19:47 | 33.64461 | -118.25284 | 16706 ft | 409 kts | 93° |
| 2026-05-04 19:47 | 33.64473 | -118.21849 | 17241 ft | 414 kts | 94° |
| 2026-05-04 19:47 | 33.64472 | -118.18364 | 17791 ft | 419 kts | 94° |
| 2026-05-04 19:48 | 33.64466 | -118.14855 | 18255 ft | 424 kts | 94° |
| 2026-05-04 19:48 | 33.64468 | -118.11305 | 18758 ft | 428 kts | 95° |
| 2026-05-04 19:48 | 33.64464 | -118.07711 | 19258 ft | 433 kts | 95° |
| 2026-05-04 19:48 | 33.64458 | -118.04126 | 19768 ft | 438 kts | 95° |
| 2026-05-04 19:49 | 33.64452 | -118.00457 | 20300 ft | 442 kts | 95° |
| 2026-05-04 19:49 | 33.64447 | -117.96749 | 20791 ft | 447 kts | 95° |
| 2026-05-04 19:49 | 33.64441 | -117.93000 | 21302 ft | 451 kts | 96° |
| 2026-05-04 19:49 | 33.64434 | -117.89213 | 21798 ft | 456 kts | 96° |
| 2026-05-04 19:50 | 33.64425 | -117.85390 | 22286 ft | 460 kts | 96° |
| 2026-05-04 19:50 | 33.64372 | -117.81540 | 22755 ft | 461 kts | 101° |
| 2026-05-04 19:50 | 33.63933 | -117.77758 | 23207 ft | 456 kts | 111° |
| 2026-05-04 19:50 | 33.63091 | -117.74108 | 23626 ft | 454 kts | 115° |
| 2026-05-04 19:51 | 33.62195 | -117.70515 | 24061 ft | 458 kts | 116° |
| 2026-05-04 19:51 | 33.61281 | -117.66842 | 24501 ft | 461 kts | 115° |
| 2026-05-04 19:51 | 33.60368 | -117.63139 | 24948 ft | 464 kts | 116° |
| 2026-05-04 19:51 | 33.59456 | -117.59420 | 25376 ft | 467 kts | 116° |
| 2026-05-04 19:52 | 33.58535 | -117.55671 | 25795 ft | 469 kts | 116° |
| 2026-05-04 19:52 | 33.57606 | -117.51913 | 26205 ft | 472 kts | 116° |
| 2026-05-04 19:52 | 33.56669 | -117.48134 | 26596 ft | 474 kts | 116° |
| 2026-05-04 19:52 | 33.55722 | -117.44334 | 26979 ft | 477 kts | 116° |
| 2026-05-04 19:53 | 33.54768 | -117.40518 | 27355 ft | 479 kts | 117° |
| 2026-05-04 19:53 | 33.53822 | -117.36741 | 27723 ft | 481 kts | 117° |
| 2026-05-04 19:53 | 33.52860 | -117.32889 | 28102 ft | 483 kts | 117° |
| 2026-05-04 19:53 | 33.51894 | -117.29021 | 28438 ft | 487 kts | 117° |
| 2026-05-04 19:54 | 33.50969 | -117.25096 | 28761 ft | 495 kts | 112° |
| 2026-05-04 19:54 | 33.50462 | -117.20950 | 29068 ft | 512 kts | 102° |
| 2026-05-04 19:54 | 33.50387 | -117.16650 | 29379 ft | 519 kts | 99° |
| 2026-05-04 19:54 | 33.50345 | -117.12310 | 29673 ft | 522 kts | 99° |
| 2026-05-04 19:55 | 33.50293 | -117.07955 | 29988 ft | 524 kts | 99° |
| 2026-05-04 19:55 | 33.50234 | -117.03643 | 30300 ft | 526 kts | 99° |
| 2026-05-04 19:55 | 33.50166 | -116.99241 | 30549 ft | 530 kts | 99° |
| 2026-05-04 19:55 | 33.50094 | -116.94815 | 30803 ft | 534 kts | 99° |
| 2026-05-04 19:56 | 33.50020 | -116.90357 | 31045 ft | 537 kts | 99° |
| 2026-05-04 19:56 | 33.49949 | -116.85865 | 31301 ft | 541 kts | 99° |
| 2026-05-04 19:56 | 33.49883 | -116.81355 | 31630 ft | 543 kts | 99° |
| 2026-05-04 19:56 | 33.49818 | -116.76827 | 31970 ft | 544 kts | 99° |
| 2026-05-04 19:57 | 33.49751 | -116.72290 | 32275 ft | 546 kts | 99° |
| 2026-05-04 19:57 | 33.49682 | -116.67808 | 32605 ft | 546 kts | 99° |
| 2026-05-04 19:57 | 33.49610 | -116.63251 | 32920 ft | 547 kts | 99° |
| 2026-05-04 19:57 | 33.49532 | -116.58694 | 33215 ft | 548 kts | 99° |
| 2026-05-04 19:58 | 33.49450 | -116.54122 | 33475 ft | 550 kts | 99° |
| 2026-05-04 19:58 | 33.49363 | -116.49536 | 33768 ft | 551 kts | 99° |
| 2026-05-04 19:58 | 33.49274 | -116.44947 | 34106 ft | 552 kts | 99° |
| 2026-05-04 19:58 | 33.49183 | -116.40350 | 34429 ft | 552 kts | 99° |
| 2026-05-04 19:59 | 33.49103 | -116.35750 | 34798 ft | 552 kts | 99° |
| 2026-05-04 19:59 | 33.49036 | -116.31208 | 34957 ft | 552 kts | 99° |
| 2026-05-04 19:59 | 33.48981 | -116.26644 | 34994 ft | 545 kts | 99° |
| 2026-05-04 20:00 | 33.48862 | -116.17603 | 34980 ft | 542 kts | 99° |
| 2026-05-04 20:00 | 33.48718 | -116.08577 | 34980 ft | 544 kts | 97° |
| 2026-05-04 20:01 | 33.49785 | -115.99497 | 34981 ft | 560 kts | 76° |
| 2026-05-04 20:01 | 33.52348 | -115.90723 | 34981 ft | 562 kts | 73° |
| 2026-05-04 20:02 | 33.54945 | -115.81895 | 34981 ft | 562 kts | 73° |
| 2026-05-04 20:02 | 33.57505 | -115.73044 | 34986 ft | 562 kts | 73° |
| 2026-05-04 20:03 | 33.60054 | -115.64192 | 34984 ft | 562 kts | 73° |
| 2026-05-04 20:03 | 33.62357 | -115.55340 | 34980 ft | 553 kts | 88° |
| 2026-05-04 20:03 | 33.62493 | -115.50808 | 34984 ft | 540 kts | 99° |
| 2026-05-04 20:04 | 33.62361 | -115.46304 | 34974 ft | 540 kts | 99° |
| 2026-05-04 20:04 | 33.62033 | -115.37304 | 34965 ft | 540 kts | 100° |
| 2026-05-04 20:05 | 33.61672 | -115.28314 | 34968 ft | 540 kts | 100° |
| 2026-05-04 20:05 | 33.61321 | -115.19374 | 34962 ft | 541 kts | 100° |
| 2026-05-04 20:06 | 33.60987 | -115.10349 | 34962 ft | 542 kts | 100° |
| 2026-05-04 20:06 | 33.60642 | -115.01313 | 34958 ft | 543 kts | 99° |
| 2026-05-04 20:07 | 33.60278 | -114.92268 | 34962 ft | 543 kts | 100° |
| 2026-05-04 20:07 | 33.59904 | -114.83254 | 34930 ft | 547 kts | 99° |
| 2026-05-04 20:08 | 33.59228 | -114.74208 | 34929 ft | 538 kts | 111° |
| 2026-05-04 20:08 | 33.57529 | -114.65490 | 34935 ft | 538 kts | 112° |
| 2026-05-04 20:09 | 33.55832 | -114.56734 | 34945 ft | 540 kts | 111° |
| 2026-05-04 20:09 | 33.54145 | -114.48016 | 34954 ft | 541 kts | 111° |
| 2026-05-04 20:10 | 33.52427 | -114.39221 | 34384 ft | 542 kts | 111° |
| 2026-05-04 20:10 | 33.51563 | -114.34834 | 33079 ft | 540 kts | 111° |
| 2026-05-04 20:10 | 33.50705 | -114.30471 | 31940 ft | 535 kts | 111° |
| 2026-05-04 20:10 | 33.49863 | -114.26177 | 30931 ft | 524 kts | 111° |
| 2026-05-04 20:11 | 33.49039 | -114.21963 | 29920 ft | 514 kts | 112° |
| 2026-05-04 20:11 | 33.48230 | -114.17836 | 28929 ft | 504 kts | 111° |
| 2026-05-04 20:11 | 33.47442 | -114.13855 | 27965 ft | 493 kts | 112° |
| 2026-05-04 20:11 | 33.46653 | -114.09903 | 26964 ft | 483 kts | 111° |
| 2026-05-04 20:12 | 33.45880 | -114.06035 | 26048 ft | 471 kts | 111° |
| 2026-05-04 20:12 | 33.45137 | -114.02306 | 25501 ft | 452 kts | 112° |
| 2026-05-04 20:12 | 33.44412 | -113.98689 | 24741 ft | 441 kts | 111° |
| 2026-05-04 20:12 | 33.43698 | -113.95151 | 23934 ft | 432 kts | 111° |
| 2026-05-04 20:13 | 33.42995 | -113.91679 | 23541 ft | 419 kts | 111° |
| 2026-05-04 20:13 | 33.42324 | -113.88336 | 23312 ft | 419 kts | 111° |
| 2026-05-04 20:13 | 33.41634 | -113.84948 | 23060 ft | 419 kts | 111° |
| 2026-05-04 20:13 | 33.40942 | -113.81564 | 22811 ft | 418 kts | 111° |
| 2026-05-04 20:14 | 33.40257 | -113.78191 | 22560 ft | 416 kts | 110° |
| 2026-05-04 20:14 | 33.39576 | -113.74825 | 22310 ft | 415 kts | 110° |
| 2026-05-04 20:14 | 33.38900 | -113.71474 | 22059 ft | 414 kts | 110° |
| 2026-05-04 20:14 | 33.38225 | -113.68129 | 21809 ft | 412 kts | 110° |
| 2026-05-04 20:15 | 33.37554 | -113.64804 | 21554 ft | 411 kts | 110° |
| 2026-05-04 20:15 | 33.36883 | -113.61495 | 21306 ft | 409 kts | 110° |
| 2026-05-04 20:15 | 33.36209 | -113.58194 | 21050 ft | 407 kts | 110° |
| 2026-05-04 20:15 | 33.35552 | -113.54959 | 20818 ft | 405 kts | 110° |
| 2026-05-04 20:16 | 33.34898 | -113.51700 | 20560 ft | 401 kts | 109° |
| 2026-05-04 20:16 | 33.34235 | -113.48470 | 20319 ft | 399 kts | 109° |
| 2026-05-04 20:16 | 33.33567 | -113.45244 | 20068 ft | 401 kts | 108° |
| 2026-05-04 20:16 | 33.32946 | -113.41991 | 19828 ft | 401 kts | 107° |
| 2026-05-04 20:17 | 33.32378 | -113.38737 | 19572 ft | 399 kts | 106° |
| 2026-05-04 20:17 | 33.31838 | -113.35486 | 19317 ft | 398 kts | 106° |
| 2026-05-04 20:17 | 33.31314 | -113.32290 | 19063 ft | 396 kts | 106° |
| 2026-05-04 20:17 | 33.30779 | -113.29064 | 18821 ft | 395 kts | 106° |
| 2026-05-04 20:18 | 33.30239 | -113.25855 | 18571 ft | 393 kts | 106° |
| 2026-05-04 20:18 | 33.29692 | -113.22662 | 18318 ft | 391 kts | 105° |
| 2026-05-04 20:18 | 33.29181 | -113.19468 | 18068 ft | 392 kts | 104° |
| 2026-05-04 20:18 | 33.28708 | -113.16260 | 17815 ft | 390 kts | 103° |
| 2026-05-04 20:19 | 33.28265 | -113.13072 | 17564 ft | 388 kts | 103° |
| 2026-05-04 20:19 | 33.27833 | -113.09903 | 17313 ft | 385 kts | 103° |
| 2026-05-04 20:19 | 33.27495 | -113.06734 | 17059 ft | 385 kts | 96° |
| 2026-05-04 20:19 | 33.27531 | -113.03582 | 16811 ft | 384 kts | 90° |
| 2026-05-04 20:20 | 33.27628 | -113.00397 | 16563 ft | 383 kts | 90° |
| 2026-05-04 20:20 | 33.27708 | -112.97230 | 16317 ft | 380 kts | 91° |
| 2026-05-04 20:20 | 33.27778 | -112.94083 | 16062 ft | 377 kts | 91° |
| 2026-05-04 20:20 | 33.27847 | -112.90954 | 15812 ft | 376 kts | 91° |
| 2026-05-04 20:21 | 33.27919 | -112.87835 | 15561 ft | 374 kts | 91° |
| 2026-05-04 20:21 | 33.27993 | -112.84744 | 15308 ft | 369 kts | 91° |
| 2026-05-04 20:21 | 33.28259 | -112.78753 | 14808 ft | 359 kts | 86° |
| 2026-05-04 20:22 | 33.28531 | -112.75801 | 14557 ft | 356 kts | 85° |
| 2026-05-04 20:22 | 33.28841 | -112.72875 | 14310 ft | 353 kts | 85° |
| 2026-05-04 20:22 | 33.29156 | -112.69982 | 14059 ft | 349 kts | 85° |
| 2026-05-04 20:22 | 33.29464 | -112.67095 | 13803 ft | 350 kts | 85° |
| 2026-05-04 20:23 | 33.29753 | -112.64209 | 13555 ft | 348 kts | 86° |
| 2026-05-04 20:23 | 33.30028 | -112.61344 | 13305 ft | 346 kts | 86° |
| 2026-05-04 20:23 | 33.30292 | -112.58532 | 13056 ft | 344 kts | 86° |
| 2026-05-04 20:23 | 33.30555 | -112.55695 | 12807 ft | 343 kts | 87° |
| 2026-05-04 20:24 | 33.30811 | -112.52873 | 12554 ft | 340 kts | 87° |
| 2026-05-04 20:24 | 33.31065 | -112.50067 | 12302 ft | 339 kts | 87° |
| 2026-05-04 20:24 | 33.31320 | -112.47277 | 12054 ft | 337 kts | 88° |
| 2026-05-04 20:24 | 33.31575 | -112.44499 | 11804 ft | 336 kts | 87° |
| 2026-05-04 20:25 | 33.31829 | -112.41731 | 11552 ft | 333 kts | 87° |
| 2026-05-04 20:25 | 33.32080 | -112.38990 | 11301 ft | 330 kts | 87° |
| 2026-05-04 20:25 | 33.32323 | -112.36308 | 11061 ft | 327 kts | 87° |
| 2026-05-04 20:25 | 33.32567 | -112.33625 | 10804 ft | 323 kts | 86° |
| 2026-05-04 20:26 | 33.32812 | -112.30963 | 10550 ft | 321 kts | 87° |
| 2026-05-04 20:26 | 33.33053 | -112.28327 | 10300 ft | 317 kts | 86° |
| 2026-05-04 20:26 | 33.33290 | -112.25718 | 10051 ft | 314 kts | 86° |
| 2026-05-04 20:26 | 33.33524 | -112.23135 | 9882 ft | 311 kts | 86° |
| 2026-05-04 20:27 | 33.33754 | -112.20567 | 9719 ft | 310 kts | 87° |
| 2026-05-04 20:27 | 33.33980 | -112.18023 | 9449 ft | 306 kts | 86° |
| 2026-05-04 20:27 | 33.34204 | -112.15536 | 9341 ft | 296 kts | 86° |
| 2026-05-04 20:27 | 33.34420 | -112.13167 | 9221 ft | 285 kts | 86° |
| 2026-05-04 20:28 | 33.34630 | -112.10858 | 9097 ft | 275 kts | 87° |
| 2026-05-04 20:28 | 33.34770 | -112.08629 | 8963 ft | 264 kts | 94° |
| 2026-05-04 20:28 | 33.34743 | -112.06443 | 8645 ft | 262 kts | 94° |
| 2026-05-04 20:28 | 33.34711 | -112.04272 | 8348 ft | 260 kts | 94° |
| 2026-05-04 20:29 | 33.34674 | -112.02121 | 8048 ft | 258 kts | 94° |
| 2026-05-04 20:29 | 33.34634 | -111.99981 | 7741 ft | 255 kts | 94° |
| 2026-05-04 20:29 | 33.34593 | -111.97904 | 7442 ft | 247 kts | 95° |
| 2026-05-04 20:29 | 33.34550 | -111.95867 | 7136 ft | 247 kts | 94° |
| 2026-05-04 20:30 | 33.34506 | -111.93834 | 7012 ft | 244 kts | 94° |
| 2026-05-04 20:30 | 33.34458 | -111.91801 | 7017 ft | 245 kts | 94° |
| 2026-05-04 20:30 | 33.34409 | -111.89763 | 7016 ft | 245 kts | 94° |
| 2026-05-04 20:30 | 33.34360 | -111.87723 | 7023 ft | 245 kts | 94° |
| 2026-05-04 20:31 | 33.34310 | -111.85689 | 6987 ft | 244 kts | 95° |
| 2026-05-04 20:31 | 33.34263 | -111.83665 | 6672 ft | 243 kts | 94° |
| 2026-05-04 20:31 | 33.34217 | -111.81644 | 6362 ft | 241 kts | 94° |
| 2026-05-04 20:31 | 33.34170 | -111.79655 | 6006 ft | 239 kts | 94° |
| 2026-05-04 20:32 | 33.34119 | -111.77699 | 5613 ft | 238 kts | 94° |
| 2026-05-04 20:32 | 33.34068 | -111.75724 | 5226 ft | 237 kts | 94° |
| 2026-05-04 20:32 | 33.34132 | -111.73764 | 4933 ft | 236 kts | 79° |
| 2026-05-04 20:32 | 33.34835 | -111.71996 | 4883 ft | 236 kts | 51° |
| 2026-05-04 20:33 | 33.36086 | -111.70841 | 4832 ft | 224 kts | 22° |
| 2026-05-04 20:33 | 33.37586 | -111.70489 | 4812 ft | 220 kts | 356° |
| 2026-05-04 20:33 | 33.39040 | -111.70940 | 4763 ft | 216 kts | 330° |
| 2026-05-04 20:33 | 33.40172 | -111.72047 | 4561 ft | 206 kts | 305° |
| 2026-05-04 20:34 | 33.40850 | -111.73506 | 4131 ft | 203 kts | 292° |
| 2026-05-04 20:34 | 33.41462 | -111.75023 | 4004 ft | 200 kts | 292° |
| 2026-05-04 20:34 | 33.42072 | -111.76506 | 4013 ft | 198 kts | 293° |
| 2026-05-04 20:34 | 33.42675 | -111.77970 | 4033 ft | 196 kts | 293° |
| 2026-05-04 20:35 | 33.43275 | -111.79430 | 4021 ft | 192 kts | 292° |
| 2026-05-04 20:35 | 33.43823 | -111.80755 | 4020 ft | 168 kts | 292° |
| 2026-05-04 20:35 | 33.44047 | -111.82056 | 3884 ft | 156 kts | 266° |
| 2026-05-04 20:35 | 33.44049 | -111.83340 | 3715 ft | 153 kts | 266° |
| 2026-05-04 20:36 | 33.44052 | -111.84586 | 3521 ft | 151 kts | 266° |
| 2026-05-04 20:36 | 33.44054 | -111.85838 | 3327 ft | 150 kts | 266° |
| 2026-05-04 20:36 | 33.44058 | -111.87087 | 3129 ft | 150 kts | 266° |
| 2026-05-04 20:36 | 33.44061 | -111.88329 | 2935 ft | 149 kts | 266° |
| 2026-05-04 20:37 | 33.44064 | -111.89564 | 2738 ft | 148 kts | 268° |
| 2026-05-04 20:37 | 33.44067 | -111.90792 | 2530 ft | 148 kts | 269° |
| 2026-05-04 20:37 | 33.44069 | -111.92022 | 2347 ft | 148 kts | 270° |
| 2026-05-04 20:37 | 33.44071 | -111.93252 | 2150 ft | 148 kts | 270° |
| 2026-05-04 20:38 | 33.44074 | -111.94481 | 1955 ft | 148 kts | 271° |
| 2026-05-04 20:38 | 33.44076 | -111.95692 | 1764 ft | 147 kts | 270° |
| 2026-05-04 20:38 | 33.44078 | -111.96915 | 1568 ft | 147 kts | 271° |
| 2026-05-04 20:38 | 33.44080 | -111.98137 | 1373 ft | 147 kts | 270° |
| 2026-05-04 20:39 | 33.44082 | -111.99355 | 1192 ft | 146 kts | 270° |
| 2026-05-04 20:39 | 33.44085 | -112.00535 | 1133 ft | 129 kts | 270° |
| 2026-05-04 20:39 | 33.44085 | -112.01299 | 1133 ft | 51 kts | 269° |
| 2026-05-04 20:39 | 33.44083 | -112.01620 | 1135 ft | 18 kts | 261° |
| 2026-05-04 20:40 | 33.44012 | -112.01694 | 1131 ft | 14 kts | 176° |
| 2026-05-04 20:40 | 33.43976 | -112.01609 | 1136 ft | 13 kts | 91° |
| 2026-05-04 20:40 | 33.43975 | -112.01498 | 1131 ft | 14 kts | 90° |
| 2026-05-04 20:40 | 33.43975 | -112.01372 | 1133 ft | 16 kts | 90° |
| 2026-05-04 20:41 | 33.43976 | -112.01235 | 1137 ft | 17 kts | 89° |
| 2026-05-04 20:41 | 33.43976 | -112.01086 | 1132 ft | 19 kts | 91° |
| 2026-05-04 20:41 | 33.43975 | -112.00926 | 1131 ft | 20 kts | 91° |
| 2026-05-04 20:41 | 33.43975 | -112.00765 | 1133 ft | 19 kts | 89° |
| 2026-05-04 20:42 | 33.43978 | -112.00610 | 1136 ft | 17 kts | 91° |
| 2026-05-04 20:42 | 33.43969 | -112.00502 | 1132 ft | 12 kts | 116° |
| 2026-05-04 20:42 | 33.43912 | -112.00441 | 1136 ft | 11 kts | 117° |
| 2026-05-04 20:42 | 33.43905 | -112.00341 | 1131 ft | 13 kts | 90° |
| 2026-05-04 20:43 | 33.43905 | -112.00228 | 1131 ft | 14 kts | 90° |
| 2026-05-04 20:43 | 33.43905 | -112.00107 | 1131 ft | 14 kts | 89° |
| 2026-05-04 20:43 | 33.43870 | -112.00036 | 1138 ft | 11 kts | 164° |
| 2026-05-04 20:43 | 33.43786 | -112.00032 | 1132 ft | 13 kts | 181° |
| 2026-05-04 20:44 | 33.43730 | -112.00029 | 1134 ft | 5 kts | 156° |
| 2026-05-04 20:44 | 33.43721 | -112.00007 | 1136 ft | 2 kts | 102° |
| 2026-05-04 20:44 | 33.43720 | -111.99997 | 1131 ft | 1 kts | 99° |
| 2026-05-04 20:44 | 33.43719 | -111.99990 | 1131 ft | 1 kts | 94° |
| 2026-05-04 20:45 | 33.43719 | -111.99985 | 1131 ft | 1 kts | 94° |
| 2026-05-04 20:45 | 33.43719 | -111.99980 | 1131 ft | 1 kts | 93° |
| 2026-05-04 20:45 | 33.43719 | -111.99979 | 1131 ft | 0 kts | 93° |